Atlantic Beach, SC

5:28 AM EDT on October 25, 2014 (GMT -0400)
Woodlyn Meadow | Change Station
CLOSE
Current Station
Personal Weather Station
Location: Little River, SC
Elevation: 35 ft
Nearby Weather Stations

Elev 35 ft 33.87 °N, 78.70 °W | Updated 25 seconds ago

Clear
Clear
42.4 °F
Feels Like 42 °F
N
0.0
Wind Variable Wind from SW
Gusts 0.0 mph

Today
High -- | Low -- °F
--% Chance of Precip.
Yesterday
High -- | Low -- °F
Precip. -- in
7:27 AM 6:29 PM
New Moon, 2% visible
Pressure 29.97 in
Visibility 1.8 miles
Clouds Clear
Windchill 42 °F
Dew Point 40 °F
Humidity 92%
Rainfall 0.00 in
Snow Depth Not available.
UV 0 out of 12
Pollen 3.50 out of 12
Air Quality Not available.
Flu Activity Sporadic
SPECI KCRE 250918Z AUTO 00000KT 1 3/4SM BR CLR 08/07 A2997 RMK AO1 T00780072

More Conditions Fewer Conditions

Pressure 29.97 in
Visibility 1.8 miles
Clouds Clear
Windchill 42 °F
Dew Point 40 °F
Humidity 92%
Rainfall 0.00 in
Snow Depth Not available.
UV 0 out of 12
Pollen 3.50 out of 12
Air Quality Not available.
Flu Activity Sporadic
SPECI KCRE 250918Z AUTO 00000KT 1 3/4SM BR CLR 08/07 A2997 RMK AO1 T00780072

More Conditions Fewer Conditions

10-Day Weather Forecast

Almanac

Astronomy

Oct. 25, 2014 Rise Set
Actual Time 7:27 AM EDT 6:29 PM EDT
Civil Twilight 7:02 AM EDT 6:54 PM EDT
Nautical Twilight 6:33 AM EDT 7:23 PM EDT
Astronomical Twilight 6:04 AM EDT 7:52 PM EDT
Moon 9:01 AM EDT 7:54 PM EDT
Length of Visible Light 11h 52m
Length of Day
11h 01m
Tomorrow will be 1m 55s shorter.
New Moon, 2% of the Moon is Illuminated
Today
New Moon
Oct 30
First Quarter
Nov 6
Full
Nov 14
Last Quarter
Nov 22
New

Today's Extremes

State Highs State Lows

Community

WunderPhotos

Upload Photos

1,764,796 photos uploaded!

Nearby

Snow Depth

Station Depth Elevation
No new snow has been reported.

Earthquake Activity

City Distance Mag. Time & Date
No recent earthquake activity has been reported nearby.
Minimum magnitude displayed is 2.5.

Coastal Water Temperatures

Place Temperature
Springmaid Pier, SC 69.1 °F

Nearby Weather Stations